Time;durP1;ratioP1;P1;durP2;ratioP2;P2;SDS_P1;SDS_P2;PMS_P1;PMS_P2;Temp;Humidity;BMP_temperature;BMP_pressure;BME280_temperature;BME280_humidity;BME280_pressure;Samples;Min_cycle;Max_cycle;Signal;HPM_P1;HPM_P2
2022/05/22 00:00:12;;;;;;;3.58;0.80;;;;;17.50;101793.00;;;;5094520;28;20210;-78
2022/05/22 00:02:40;;;;;;;2.10;1.00;;;;;17.50;101793.00;;;;5093535;28;20216;-78
2022/05/22 00:05:09;;;;;;;2.50;0.93;;;;;17.50;101788.00;;;;5088052;28;20660;-78
2022/05/22 00:07:36;;;;;;;1.63;0.75;;;;;17.40;101785.00;;;;5083524;28;20664;-78
2022/05/22 00:10:05;;;;;;;2.58;0.85;;;;;17.40;101798.00;;;;5074845;28;20213;-78
2022/05/22 00:12:32;;;;;;;1.90;0.95;;;;;17.40;101794.00;;;;5090677;28;20225;-77
2022/05/22 00:15:01;;;;;;;3.67;1.00;;;;;17.30;101794.00;;;;5080463;28;20202;-78
2022/05/22 00:17:28;;;;;;;4.20;0.93;;;;;17.30;101796.00;;;;5085265;28;20203;-78
2022/05/22 00:19:56;;;;;;;2.97;1.05;;;;;17.30;101790.00;;;;5086456;28;21038;-78
2022/05/22 00:22:23;;;;;;;1.67;0.85;;;;;17.30;101787.00;;;;5089237;28;20226;-78
2022/05/22 00:24:52;;;;;;;3.35;1.10;;;;;17.20;101784.00;;;;5074645;28;20202;-78
2022/05/22 00:27:19;;;;;;;4.20;1.70;;;;;17.20;101777.00;;;;5081663;28;20195;-78
2022/05/22 00:29:47;;;;;;;1.15;0.77;;;;;17.20;101774.00;;;;5091803;28;20198;-78
2022/05/22 00:32:15;;;;;;;1.95;0.88;;;;;17.20;101769.00;;;;5086066;28;20640;-78
2022/05/22 00:34:43;;;;;;;1.40;0.65;;;;;17.20;101781.00;;;;5092320;28;20606;-78
2022/05/22 00:37:12;;;;;;;3.20;0.70;;;;;17.10;101775.00;;;;5086534;28;20725;-78
2022/05/22 00:39:39;;;;;;;3.03;1.08;;;;;17.10;101779.00;;;;5093672;28;20186;-78
2022/05/22 00:42:18;;;;;;;3.53;0.90;;;;;17.00;101777.00;;;;5093260;28;20869;-77
2022/05/22 00:44:46;;;;;;;2.15;0.93;;;;;17.00;101772.00;;;;5084677;28;20675;-78
2022/05/22 00:47:15;;;;;;;2.90;0.82;;;;;17.00;101778.00;;;;5078561;28;20201;-78
2022/05/22 00:49:44;;;;;;;2.22;0.75;;;;;17.00;101771.00;;;;5080747;28;20202;-77
2022/05/22 00:52:15;;;;;;;1.42;0.65;;;;;16.90;101758.00;;;;5092767;28;20218;-78
2022/05/22 00:54:48;;;;;;;3.25;0.70;;;;;16.90;101757.00;;;;5095302;28;20664;-78
2022/05/22 00:57:20;;;;;;;3.00;0.57;;;;;16.90;101757.00;;;;5093424;28;20214;-78
2022/05/22 00:59:51;;;;;;;3.25;1.13;;;;;16.90;101762.00;;;;5089019;28;20202;-78
2022/05/22 01:02:20;;;;;;;1.13;0.52;;;;;16.80;101759.00;;;;5091860;28;20618;-78
2022/05/22 01:04:50;;;;;;;3.08;0.63;;;;;16.80;101761.00;;;;5089322;28;20190;-77
2022/05/22 01:07:17;;;;;;;0.90;0.80;;;;;16.80;101764.00;;;;5081378;28;20648;-78
2022/05/22 01:09:46;;;;;;;3.55;0.70;;;;;16.80;101763.00;;;;5088492;28;20199;-78
2022/05/22 01:12:17;;;;;;;3.72;0.90;;;;;16.70;101747.00;;;;5083811;28;20225;-78
2022/05/22 01:14:47;;;;;;;1.92;1.00;;;;;16.70;101749.00;;;;5096165;28;20202;-77
2022/05/22 01:17:15;;;;;;;4.15;1.02;;;;;16.70;101752.00;;;;5083798;28;20260;-78
2022/05/22 01:19:55;;;;;;;3.75;0.52;;;;;16.60;101756.00;;;;5089156;28;20199;-78
2022/05/22 01:22:23;;;;;;;1.02;0.32;;;;;16.70;101756.00;;;;5080257;28;20230;-78
2022/05/22 01:24:51;;;;;;;1.25;0.70;;;;;16.70;101759.00;;;;5087091;28;20198;-77
2022/05/22 01:27:20;;;;;;;2.15;0.60;;;;;16.60;101768.00;;;;5081890;28;20576;-77
2022/05/22 01:29:47;;;;;;;1.50;0.70;;;;;16.60;101759.00;;;;5085671;28;20186;-78
2022/05/22 01:32:15;;;;;;;2.53;0.95;;;;;16.60;101747.00;;;;5091147;28;20275;-78
2022/05/22 01:34:42;;;;;;;2.58;0.98;;;;;16.60;101741.00;;;;5087381;28;20202;-77
2022/05/22 01:37:09;;;;;;;0.93;0.60;;;;;16.60;101753.00;;;;5087090;28;20255;-77
2022/05/22 01:39:38;;;;;;;1.20;0.60;;;;;16.50;101754.00;;;;5084328;28;20195;-78
2022/05/22 01:42:06;;;;;;;3.90;0.75;;;;;16.50;101754.00;;;;5082973;28;20226;-78
2022/05/22 01:44:33;;;;;;;1.05;0.55;;;;;16.50;101754.00;;;;5089089;28;20190;-78
2022/05/22 01:47:00;;;;;;;1.95;0.70;;;;;16.50;101760.00;;;;5074372;28;20206;-78
2022/05/22 01:49:27;;;;;;;4.43;1.02;;;;;16.50;101759.00;;;;5086286;28;20198;-77
2022/05/22 01:51:55;;;;;;;2.40;0.70;;;;;16.40;101758.00;;;;5089670;28;20202;-78
2022/05/22 01:54:22;;;;;;;0.95;0.68;;;;;16.40;101749.00;;;;5088483;28;20229;-77
2022/05/22 01:56:50;;;;;;;1.63;0.90;;;;;16.40;101737.00;;;;5091047;28;20222;-77
2022/05/22 01:59:18;;;;;;;1.55;1.02;;;;;16.40;101735.00;;;;5082635;28;20225;-78
2022/05/22 02:01:45;;;;;;;5.28;1.23;;;;;16.40;101734.00;;;;5082295;28;20649;-77
2022/05/22 02:04:12;;;;;;;1.38;0.80;;;;;16.30;101732.00;;;;5079503;28;20194;-77
2022/05/22 02:08:18;;;;;;;4.28;1.88;;;;;16.30;101724.00;;;;5091204;28;20194;-77
2022/05/22 02:09:26;;;;;;;1.55;1.10;;;;;16.30;101722.00;;;;5090287;28;20204;-77
2022/05/22 02:11:54;;;;;;;3.67;0.98;;;;;16.30;101713.00;;;;5085740;28;20194;-77
2022/05/22 02:14:25;;;;;;;1.10;0.80;;;;;16.30;101716.00;;;;5089795;28;20238;-78
2022/05/22 02:16:52;;;;;;;3.25;1.30;;;;;16.20;101710.00;;;;5088588;28;20202;-77
2022/05/22 02:19:19;;;;;;;1.52;1.00;;;;;16.20;101709.00;;;;5087761;28;20198;-77
2022/05/22 02:21:46;;;;;;;1.90;1.20;;;;;16.20;101711.00;;;;5090179;28;20190;-78
2022/05/22 02:24:13;;;;;;;5.40;1.20;;;;;16.20;101709.00;;;;5076455;28;20563;-77
2022/05/22 02:26:41;;;;;;;1.88;1.27;;;;;16.20;101705.00;;;;5077748;28;20202;-77
2022/05/22 02:29:10;;;;;;;1.23;0.85;;;;;16.10;101695.00;;;;5086177;28;20559;-78
2022/05/22 02:31:37;;;;;;;1.48;0.98;;;;;16.10;101695.00;;;;5089218;28;20205;-77
2022/05/22 02:34:04;;;;;;;1.17;0.88;;;;;16.10;101701.00;;;;5086663;28;20225;-77
2022/05/22 02:36:32;;;;;;;1.10;0.98;;;;;16.10;101700.00;;;;5087488;28;20194;-77
2022/05/22 02:38:59;;;;;;;3.90;1.60;;;;;16.10;101693.00;;;;5089960;28;20205;-77
2022/05/22 02:41:26;;;;;;;2.08;0.98;;;;;16.10;101687.00;;;;5084656;28;20218;-78
2022/05/22 02:43:54;;;;;;;1.27;1.02;;;;;16.10;101684.00;;;;5081841;28;20205;-77
2022/05/22 02:46:24;;;;;;;4.75;1.00;;;;;16.00;101681.00;;;;5087026;28;20247;-77
2022/05/22 02:48:52;;;;;;;2.50;1.10;;;;;16.00;101680.00;;;;5079510;28;20726;-77
2022/05/22 02:51:21;;;;;;;3.42;1.40;;;;;16.00;101676.00;;;;5075443;28;20199;-77
2022/05/22 02:53:48;;;;;;;2.13;1.40;;;;;16.00;101682.00;;;;5068952;28;20237;-78
2022/05/22 02:56:18;;;;;;;2.55;1.58;;;;;15.90;101679.00;;;;5079853;28;20202;-77
2022/05/22 02:58:45;;;;;;;2.45;1.23;;;;;16.00;101675.00;;;;5078166;28;20210;-77
2022/05/22 03:01:12;;;;;;;3.30;1.50;;;;;15.90;101682.00;;;;5081679;28;20199;-77
2022/05/22 03:03:41;;;;;;;4.10;1.48;;;;;15.90;101682.00;;;;5081014;28;20206;-77
2022/05/22 03:08:54;;;;;;;2.35;1.52;;;;;15.90;101680.00;;;;5089121;28;20201;-77
2022/05/22 03:11:21;;;;;;;2.35;1.42;;;;;15.90;101677.00;;;;5089471;28;20248;-77
2022/05/22 03:13:48;;;;;;;2.08;1.60;;;;;15.90;101675.00;;;;5077527;28;20722;-78
2022/05/22 03:16:16;;;;;;;2.45;1.50;;;;;15.90;101671.00;;;;5086516;28;20199;-77
2022/05/22 03:18:45;;;;;;;2.13;1.65;;;;;15.80;101663.00;;;;5081564;28;20195;-77
2022/05/22 03:21:13;;;;;;;2.10;1.40;;;;;15.80;101652.00;;;;5089615;28;20210;-77
2022/05/22 03:23:41;;;;;;;3.22;1.27;;;;;15.80;101654.00;;;;5088846;28;20199;-77
2022/05/22 03:26:09;;;;;;;3.05;1.65;;;;;15.80;101660.00;;;;5087634;28;20198;-78
2022/05/22 03:28:37;;;;;;;3.78;1.40;;;;;15.80;101670.00;;;;5096815;28;20186;-78
2022/05/22 03:31:04;;;;;;;5.05;2.05;;;;;15.80;101673.00;;;;5089128;28;20194;-77
2022/05/22 03:33:31;;;;;;;4.55;1.52;;;;;15.80;101660.00;;;;5085944;28;20857;-77
2022/05/22 03:36:00;;;;;;;3.80;1.92;;;;;15.80;101669.00;;;;5086000;28;20194;-78
2022/05/22 03:38:27;;;;;;;3.50;1.80;;;;;15.80;101666.00;;;;5077807;28;20206;-77
2022/05/22 03:40:54;;;;;;;4.00;1.85;;;;;15.80;101661.00;;;;5075593;28;20222;-77
2022/05/22 03:43:21;;;;;;;2.13;1.55;;;;;15.80;101664.00;;;;5085707;28;20190;-77
2022/05/22 03:45:49;;;;;;;2.78;1.95;;;;;15.70;101657.00;;;;5086683;28;20198;-77
2022/05/22 03:48:16;;;;;;;3.83;1.77;;;;;15.70;101661.00;;;;5086653;28;20190;-77
2022/05/22 03:50:44;;;;;;;2.33;1.40;;;;;15.70;101654.00;;;;5068158;28;20206;-77
2022/05/22 03:53:12;;;;;;;2.70;1.70;;;;;15.70;101661.00;;;;5071719;28;20219;-78
2022/05/22 03:55:42;;;;;;;4.50;1.67;;;;;15.70;101656.00;;;;5079357;28;20556;-77
2022/05/22 03:58:09;;;;;;;3.53;1.63;;;;;15.70;101651.00;;;;5067701;28;20253;-78
2022/05/22 04:00:37;;;;;;;4.47;2.17;;;;;15.70;101653.00;;;;5075533;28;20274;-77
2022/05/22 04:03:04;;;;;;;2.95;1.92;;;;;15.70;101659.00;;;;5079101;28;20194;-77
2022/05/22 04:05:31;;;;;;;3.53;1.85;;;;;15.70;101652.00;;;;5072625;28;20289;-77
2022/05/22 04:07:59;;;;;;;2.45;1.33;;;;;15.70;101653.00;;;;5080919;28;20300;-77
2022/05/22 04:10:28;;;;;;;3.53;2.00;;;;;15.70;101647.00;;;;5088616;28;20208;-77
2022/05/22 04:12:55;;;;;;;5.22;1.95;;;;;15.70;101640.00;;;;5087752;28;20213;-77
2022/05/22 04:15:23;;;;;;;1.48;1.25;;;;;15.70;101646.00;;;;5087503;28;20190;-77
2022/05/22 04:17:50;;;;;;;3.15;1.98;;;;;15.70;101648.00;;;;5081786;28;20214;-77
2022/05/22 04:20:19;;;;;;;4.20;2.00;;;;;15.70;101647.00;;;;5078981;28;20190;-77
2022/05/22 04:25:32;;;;;;;3.28;2.17;;;;;15.80;101643.00;;;;5075181;28;20687;-77
2022/05/22 04:28:00;;;;;;;3.35;2.33;;;;;15.80;101644.00;;;;5085348;28;20602;-77
2022/05/22 04:30:27;;;;;;;5.45;2.30;;;;;15.80;101643.00;;;;5087100;28;20205;-77
2022/05/22 04:32:56;;;;;;;5.03;2.38;;;;;15.90;101647.00;;;;5077220;28;20211;-78
2022/05/22 04:35:23;;;;;;;4.65;2.15;;;;;15.90;101640.00;;;;5083416;28;20655;-77
2022/05/22 04:37:51;;;;;;;3.55;2.22;;;;;16.00;101637.00;;;;5088088;28;20194;-77
2022/05/22 04:40:18;;;;;;;3.17;2.20;;;;;16.00;101637.00;;;;5087332;28;20225;-77
2022/05/22 04:42:47;;;;;;;3.13;1.88;;;;;16.10;101639.00;;;;5083988;28;20243;-77
2022/05/22 04:45:14;;;;;;;3.20;2.13;;;;;16.10;101634.00;;;;5079333;28;20198;-78
2022/05/22 04:47:43;;;;;;;3.85;2.60;;;;;16.20;101636.00;;;;5076264;28;21022;-77
2022/05/22 04:50:12;;;;;;;4.40;2.33;;;;;16.20;101638.00;;;;5080834;28;20273;-77
2022/05/22 04:52:40;;;;;;;5.45;2.05;;;;;16.30;101635.00;;;;5090111;28;20563;-77
2022/05/22 04:55:08;;;;;;;2.20;1.92;;;;;16.30;101636.00;;;;5091989;28;20210;-78
2022/05/22 04:57:38;;;;;;;4.80;2.45;;;;;16.40;101631.00;;;;5091838;28;20642;-78
2022/05/22 05:00:10;;;;;;;3.05;2.13;;;;;16.40;101633.00;;;;5088564;28;20202;-78
2022/05/22 05:02:38;;;;;;;3.17;1.90;;;;;16.50;101630.00;;;;5081287;28;20195;-78
2022/05/22 05:05:08;;;;;;;4.10;2.30;;;;;16.60;101639.00;;;;5080770;28;20198;-78
2022/05/22 05:07:37;;;;;;;3.47;2.42;;;;;16.70;101639.00;;;;5083193;28;20273;-78
2022/05/22 05:10:05;;;;;;;4.97;2.30;;;;;16.70;101642.00;;;;5087775;28;20202;-78
2022/05/22 05:12:36;;;;;;;1.98;1.70;;;;;16.80;101641.00;;;;5089095;28;20194;-77
2022/05/22 05:15:10;;;;;;;3.80;2.25;;;;;16.80;101636.00;;;;5083239;28;20217;-79
2022/05/22 05:17:40;;;;;;;2.15;1.63;;;;;17.00;101638.00;;;;5078914;28;20206;-80
2022/05/22 05:20:08;;;;;;;5.88;1.83;;;;;17.00;101632.00;;;;5086029;28;20263;-79
2022/05/22 05:22:37;;;;;;;2.65;1.52;;;;;17.10;101635.00;;;;5086342;28;20222;-80
2022/05/22 05:25:06;;;;;;;2.22;1.80;;;;;17.20;101639.00;;;;5082745;28;20688;-80
2022/05/22 05:27:33;;;;;;;3.90;1.95;;;;;17.30;101633.00;;;;5086446;28;20190;-80
2022/05/22 05:30:00;;;;;;;3.92;1.50;;;;;17.40;101636.00;;;;5088012;28;20197;-79
2022/05/22 05:32:29;;;;;;;3.92;2.20;;;;;17.50;101628.00;;;;5088462;28;20218;-79
2022/05/22 05:34:58;;;;;;;2.88;2.05;;;;;17.60;101625.00;;;;5088574;28;20222;-79
2022/05/22 05:37:25;;;;;;;4.63;2.33;;;;;17.70;101628.00;;;;5085745;28;20281;-78
2022/05/22 05:39:52;;;;;;;4.78;2.78;;;;;17.80;101623.00;;;;5086919;28;20194;-78
2022/05/22 05:42:20;;;;;;;8.65;3.30;;;;;17.90;101635.00;;;;5084146;28;20198;-77
2022/05/22 05:44:48;;;;;;;7.53;3.33;;;;;18.00;101640.00;;;;5089589;28;20202;-78
2022/05/22 05:47:16;;;;;;;4.72;3.35;;;;;18.10;101639.00;;;;5084219;28;20722;-78
2022/05/22 05:49:45;;;;;;;3.97;3.00;;;;;18.10;101632.00;;;;5085581;28;20736;-78
2022/05/22 05:52:12;;;;;;;4.75;2.95;;;;;18.30;101635.00;;;;5086376;28;20199;-78
2022/05/22 05:54:39;;;;;;;3.47;3.17;;;;;18.40;101638.00;;;;5084799;28;20225;-78
2022/05/22 05:57:07;;;;;;;5.18;3.10;;;;;18.50;101643.00;;;;5083809;28;21064;-78
2022/05/22 05:59:34;;;;;;;8.30;3.10;;;;;18.60;101635.00;;;;5087157;28;20206;-77
2022/05/22 06:02:02;;;;;;;7.03;3.67;;;;;18.70;101641.00;;;;5083694;28;20194;-79
2022/05/22 06:04:29;;;;;;;6.35;3.28;;;;;18.80;101650.00;;;;5085961;28;20203;-78
2022/05/22 06:06:58;;;;;;;7.57;3.50;;;;;18.90;101647.00;;;;5086626;28;21589;-78
2022/05/22 06:09:25;;;;;;;5.25;2.75;;;;;19.00;101645.00;;;;5081950;28;20194;-77
2022/05/22 06:11:53;;;;;;;4.60;2.95;;;;;19.20;101645.00;;;;5084009;28;20197;-79
2022/05/22 06:14:20;;;;;;;5.07;3.15;;;;;19.30;101654.00;;;;5087931;28;20271;-78
2022/05/22 06:16:47;;;;;;;5.68;2.83;;;;;19.40;101650.00;;;;5087042;28;20201;-78
2022/05/22 06:19:15;;;;;;;4.45;2.92;;;;;19.40;101656.00;;;;5083821;28;20321;-78
2022/05/22 06:21:44;;;;;;;4.90;2.83;;;;;19.50;101653.00;;;;5084317;28;20205;-77
2022/05/22 06:24:13;;;;;;;3.70;2.50;;;;;19.70;101645.00;;;;5087614;28;20284;-77
2022/05/22 06:26:40;;;;;;;6.32;2.08;;;;;19.80;101649.00;;;;5084203;28;20217;-77
2022/05/22 06:29:07;;;;;;;6.07;2.60;;;;;19.90;101654.00;;;;5085817;28;20652;-77
2022/05/22 06:31:34;;;;;;;6.90;3.17;;;;;20.00;101650.00;;;;5086645;28;20190;-77
2022/05/22 06:34:02;;;;;;;4.05;2.90;;;;;20.10;101657.00;;;;5088999;28;20298;-76
2022/05/22 06:36:29;;;;;;;5.10;2.50;;;;;20.20;101656.00;;;;5077511;28;20206;-77
2022/05/22 06:41:42;;;;;;;4.47;2.53;;;;;20.40;101656.00;;;;5085946;28;20241;-77
2022/05/22 06:44:10;;;;;;;3.58;2.50;;;;;20.50;101652.00;;;;5085263;28;20198;-77
2022/05/22 06:46:37;;;;;;;2.85;2.38;;;;;20.60;101651.00;;;;5078104;28;20649;-77
2022/05/22 06:49:04;;;;;;;6.90;2.55;;;;;20.70;101656.00;;;;5087596;28;20198;-76
2022/05/22 06:51:32;;;;;;;3.05;2.50;;;;;20.80;101660.00;;;;5078604;28;20198;-77
2022/05/22 06:53:59;;;;;;;7.13;2.80;;;;;20.90;101652.00;;;;5087531;28;20221;-76
2022/05/22 06:56:26;;;;;;;5.93;2.80;;;;;21.00;101650.00;;;;5077699;28;20210;-77
2022/05/22 06:58:55;;;;;;;5.75;2.75;;;;;21.10;101657.00;;;;5080505;28;20214;-77
2022/05/22 07:01:22;;;;;;;5.90;2.72;;;;;21.20;101654.00;;;;5082554;28;20194;-76
2022/05/22 07:03:50;;;;;;;4.35;2.70;;;;;21.30;101657.00;;;;5087009;28;20198;-77
2022/05/22 07:06:17;;;;;;;5.97;2.53;;;;;21.40;101654.00;;;;5083402;28;21084;-77
2022/05/22 07:08:45;;;;;;;3.03;2.08;;;;;21.50;101659.00;;;;5086658;28;20201;-77
2022/05/22 07:13:58;;;;;;;7.75;2.75;;;;;21.70;101666.00;;;;5084166;28;20225;-77
2022/05/22 07:16:25;;;;;;;3.33;2.53;;;;;21.80;101660.00;;;;5087128;28;20220;-77
2022/05/22 07:18:53;;;;;;;4.35;2.08;;;;;22.00;101659.00;;;;5088168;28;20202;-77
2022/05/22 07:21:20;;;;;;;4.28;2.45;;;;;22.00;101656.00;;;;5074837;28;20207;-77
2022/05/22 07:23:47;;;;;;;3.67;2.17;;;;;22.10;101652.00;;;;5086219;28;20194;-76
2022/05/22 07:26:15;;;;;;;6.13;2.10;;;;;22.20;101656.00;;;;5086513;28;20194;-77
2022/05/22 07:28:43;;;;;;;6.75;2.33;;;;;22.30;101653.00;;;;5071063;28;20201;-77
2022/05/22 07:31:16;;;;;;;5.57;2.35;;;;;22.40;101647.00;;;;5086821;28;20202;-77
2022/05/22 07:33:44;;;;;;;4.07;2.55;;;;;22.60;101658.00;;;;5085101;28;20567;-77
2022/05/22 07:36:12;;;;;;;4.30;2.50;;;;;22.70;101653.00;;;;5081995;28;20209;-78
2022/05/22 07:38:39;;;;;;;4.35;2.30;;;;;22.80;101653.00;;;;5082414;28;20183;-77
2022/05/22 07:41:07;;;;;;;5.20;2.22;;;;;22.90;101662.00;;;;5081205;28;20237;-77
2022/05/22 07:43:34;;;;;;;3.92;1.80;;;;;23.00;101651.00;;;;5086033;28;20225;-77
2022/05/22 07:46:02;;;;;;;6.13;2.15;;;;;23.10;101649.00;;;;5083200;28;20566;-78
2022/05/22 07:48:30;;;;;;;4.43;1.48;;;;;23.20;101648.00;;;;5085065;28;20963;-78
2022/05/22 07:50:59;;;;;;;4.57;1.70;;;;;23.30;101653.00;;;;5079689;28;20220;-79
2022/05/22 07:53:26;;;;;;;4.07;1.88;;;;;23.40;101650.00;;;;5084727;28;20201;-79
2022/05/22 07:55:54;;;;;;;6.00;1.38;;;;;23.60;101656.00;;;;5070188;28;20248;-79
2022/05/22 07:58:25;;;;;;;2.88;1.45;;;;;23.70;101653.00;;;;5068421;28;20217;-79
2022/05/22 08:00:54;;;;;;;2.25;1.50;;;;;23.80;101655.00;;;;5076655;28;20260;-80
2022/05/22 08:03:21;;;;;;;6.68;1.63;;;;;23.90;101652.00;;;;5083976;28;20252;-80
2022/05/22 08:05:51;;;;;;;3.53;1.42;;;;;24.00;101638.00;;;;5086882;28;20194;-79
2022/05/22 08:08:18;;;;;;;10.43;2.60;;;;;24.10;101641.00;;;;5079011;28;20202;-80
2022/05/22 08:10:46;;;;;;;3.53;1.50;;;;;24.20;101639.00;;;;5084593;28;20199;-80
2022/05/22 08:13:14;;;;;;;3.67;1.75;;;;;24.30;101637.00;;;;5085298;28;20202;-81
2022/05/22 08:15:43;;;;;;;6.50;2.22;;;;;24.30;101633.00;;;;5088125;28;20229;-79
2022/05/22 08:18:12;;;;;;;3.85;1.42;;;;;24.40;101630.00;;;;5088089;28;20227;-80
2022/05/22 08:20:41;;;;;;;3.45;1.60;;;;;24.50;101620.00;;;;5092518;28;20213;-79
2022/05/22 08:23:15;;;;;;;6.45;2.20;;;;;24.50;101627.00;;;;5079894;28;20199;-80
2022/05/22 08:25:43;;;;;;;1.83;1.08;;;;;24.70;101622.00;;;;5078455;28;20198;-79
2022/05/22 08:28:10;;;;;;;3.30;1.40;;;;;24.80;101629.00;;;;5077060;28;20201;-79
2022/05/22 08:30:37;;;;;;;2.47;1.05;;;;;24.90;101617.00;;;;5092454;28;20204;-79
2022/05/22 08:33:05;;;;;;;3.15;1.55;;;;;24.90;101607.00;;;;5077192;28;20203;-79
2022/05/22 08:35:34;;;;;;;3.00;1.10;;;;;24.90;101612.00;;;;5075565;28;20659;-81
2022/05/22 08:38:02;;;;;;;2.97;1.33;;;;;25.00;101605.00;;;;5090549;28;20202;-79
2022/05/22 08:40:39;;;;;;;5.03;1.40;;;;;25.10;101600.00;;;;5082041;28;21065;-80
2022/05/22 08:43:11;;;;;;;3.35;1.20;;;;;25.20;101596.00;;;;5084536;28;20197;-79
2022/05/22 08:45:42;;;;;;;4.70;1.63;;;;;25.30;101598.00;;;;5079159;28;20202;-78
2022/05/22 08:48:15;;;;;;;5.38;1.52;;;;;25.40;101587.00;;;;5085585;28;20268;-79
2022/05/22 08:50:45;;;;;;;2.90;1.50;;;;;25.50;101587.00;;;;5090897;28;20221;-79
2022/05/22 08:53:19;;;;;;;3.95;1.35;;;;;25.60;101581.00;;;;5079939;28;20207;-79
2022/05/22 09:01:26;;;;;;;3.80;1.45;;;;;25.80;101557.00;;;;5075316;28;20215;-80
2022/05/22 09:03:58;;;;;;;4.65;1.50;;;;;25.80;101556.00;;;;5086547;28;20198;-78
2022/05/22 09:06:31;;;;;;;2.45;1.25;;;;;25.90;101553.00;;;;5086982;28;20186;-79
2022/05/22 09:08:58;;;;;;;2.70;1.05;;;;;26.10;101553.00;;;;5083906;28;20625;-79
2022/05/22 09:11:37;;;;;;;2.58;1.08;;;;;26.10;101549.00;;;;5083475;28;20206;-79
2022/05/22 09:14:09;;;;;;;2.33;1.00;;;;;26.20;101554.00;;;;5074162;28;20287;-79
2022/05/22 09:16:53;;;;;;;4.18;1.60;;;;;26.20;101554.00;;;;5081528;28;20202;-78
2022/05/22 09:19:26;;;;;;;1.17;0.68;;;;;26.40;101547.00;;;;5028058;28;20211;-79
2022/05/22 09:22:09;;;;;;;3.70;1.58;;;;;26.50;101543.00;;;;5028679;28;20205;-78
2022/05/22 09:24:48;;;;;;;1.73;1.08;;;;;26.60;101530.00;;;;5026032;28;20246;-79
2022/05/22 09:27:22;;;;;;;2.85;0.90;;;;;26.70;101535.00;;;;5027478;28;21043;-80
2022/05/22 09:30:00;;;;;;;2.60;0.77;;;;;26.80;101535.00;;;;5025757;28;20647;-78
2022/05/22 09:32:40;;;;;;;2.00;0.73;;;;;26.90;101538.00;;;;5017805;28;20196;-78
2022/05/22 09:35:16;;;;;;;1.60;0.55;;;;;26.90;101533.00;;;;5027059;28;20671;-77
2022/05/22 09:37:57;;;;;;;2.75;0.70;;;;;27.00;101534.00;;;;5026376;28;20200;-81
2022/05/22 09:40:32;;;;;;;2.53;0.95;;;;;27.10;101531.00;;;;5023717;28;20250;-81
2022/05/22 09:43:28;;;;;;;1.27;0.57;;;;;27.20;101530.00;;;;5020713;28;20720;-80
2022/05/22 09:46:12;;;;;;;3.90;0.88;;;;;27.20;101537.00;;;;5026458;28;20204;-78
2022/05/22 09:48:57;;;;;;;4.05;0.70;;;;;27.20;101523.00;;;;5023841;28;20200;-78
2022/05/22 09:51:32;;;;;;;1.30;0.70;;;;;27.30;101529.00;;;;5083524;28;20195;-79
2022/05/22 09:54:17;;;;;;;3.13;0.80;;;;;27.30;101533.00;;;;5084005;28;20197;-81
2022/05/22 09:56:54;;;;;;;4.20;0.50;;;;;27.40;101529.00;;;;5085840;28;20198;-79
2022/05/22 09:59:52;;;;;;;1.38;0.60;;;;;27.40;101526.00;;;;5072636;28;20298;-78
2022/05/22 10:02:27;;;;;;;1.00;0.57;;;;;27.50;101517.00;;;;5095827;28;20198;-78
2022/05/22 10:05:04;;;;;;;4.82;1.00;;;;;27.60;101520.00;;;;5104804;28;20213;-79
2022/05/22 10:07:38;;;;;;;3.83;0.98;;;;;27.70;101516.00;;;;5078662;28;20195;-79
2022/05/22 10:10:14;;;;;;;4.78;1.23;;;;;27.80;101522.00;;;;5079425;28;20201;-82
2022/05/22 10:12:51;;;;;;;2.75;0.95;;;;;27.90;101522.00;;;;5078353;28;20259;-81
2022/05/22 10:15:36;;;;;;;4.78;1.27;;;;;28.00;101532.00;;;;5082182;28;20229;-78
2022/05/22 10:18:32;;;;;;;2.47;0.85;;;;;28.00;101531.00;;;;5086431;28;20199;-80
2022/05/22 10:21:11;;;;;;;2.35;0.70;;;;;28.00;101521.00;;;;5077127;28;20209;-80
2022/05/22 10:23:54;;;;;;;1.75;1.15;;;;;27.90;101508.00;;;;5081456;28;20199;-80
2022/05/22 10:26:30;;;;;;;3.40;1.63;;;;;28.00;101507.00;;;;5085236;28;20201;-81
2022/05/22 10:29:03;;;;;;;2.75;0.90;;;;;28.10;101509.00;;;;5079459;28;20609;-81
2022/05/22 10:31:40;;;;;;;2.33;0.85;;;;;28.10;101509.00;;;;5089741;28;20206;-81
2022/05/22 10:34:15;;;;;;;2.67;1.13;;;;;28.10;101505.00;;;;5089237;28;20210;-79
2022/05/22 10:36:45;;;;;;;1.00;0.52;;;;;28.10;101515.00;;;;5082665;28;20228;-79
2022/05/22 10:39:14;;;;;;;2.72;0.73;;;;;28.10;101512.00;;;;5072400;28;20230;-78
2022/05/22 10:44:38;;;;;;;2.28;0.50;;;;;28.10;101503.00;;;;5083470;28;20662;-81
2022/05/22 10:47:07;;;;;;;1.73;0.80;;;;;28.10;101499.00;;;;5082361;28;20312;-81
2022/05/22 10:49:40;;;;;;;5.95;1.60;;;;;28.10;101490.00;;;;5082176;28;20283;-80
2022/05/22 10:52:10;;;;;;;2.00;0.88;;;;;28.20;101487.00;;;;5087361;28;20190;-81
2022/05/22 10:54:46;;;;;;;3.40;1.40;;;;;28.20;101493.00;;;;5086340;28;20194;-81
2022/05/22 10:57:15;;;;;;;2.03;1.35;;;;;28.20;101483.00;;;;5085756;28;20919;-82
2022/05/22 10:59:43;;;;;;;3.38;1.20;;;;;28.20;101477.00;;;;5089210;28;20202;-81
2022/05/22 11:02:21;;;;;;;3.80;1.20;;;;;28.20;101475.00;;;;5086902;28;20224;-80
2022/05/22 11:04:51;;;;;;;4.00;1.27;;;;;28.20;101490.00;;;;5086710;28;20213;-80
2022/05/22 11:07:30;;;;;;;2.65;1.38;;;;;28.10;101476.00;;;;5085952;28;20195;-84
2022/05/22 11:10:07;;;;;;;2.58;1.27;;;;;28.10;101471.00;;;;5075607;28;20211;-82
2022/05/22 11:12:42;;;;;;;3.35;1.23;;;;;28.00;101475.00;;;;5075606;28;20407;-83
2022/05/22 11:15:14;;;;;;;2.85;1.25;;;;;28.10;101458.00;;;;5079711;28;20230;-83
2022/05/22 11:17:57;;;;;;;2.63;1.50;;;;;28.10;101445.00;;;;5083273;28;20293;-83
2022/05/22 11:20:26;;;;;;;4.50;1.30;;;;;28.10;101446.00;;;;5076583;28;20676;-82
2022/05/22 11:23:01;;;;;;;2.85;1.73;;;;;28.10;101446.00;;;;5083033;28;20198;-81
2022/05/22 11:25:36;;;;;;;1.90;1.00;;;;;28.10;101443.00;;;;5083236;28;20569;-80
2022/05/22 11:28:19;;;;;;;2.45;1.20;;;;;28.10;101435.00;;;;5087971;28;20205;-80
2022/05/22 11:30:57;;;;;;;3.78;1.23;;;;;28.20;101429.00;;;;5083333;28;20198;-79
2022/05/22 11:33:47;;;;;;;3.97;1.63;;;;;28.00;101430.00;;;;5080155;28;20203;-79
2022/05/22 11:36:33;;;;;;;3.20;1.17;;;;;28.10;101425.00;;;;5080838;28;20290;-79
2022/05/22 11:39:23;;;;;;;3.53;1.17;;;;;28.00;101419.00;;;;5082229;28;20213;-80
2022/05/22 11:41:55;;;;;;;2.03;1.48;;;;;28.10;101416.00;;;;5085282;28;20316;-81
2022/05/22 11:44:54;;;;;;;2.40;1.50;;;;;28.00;101407.00;;;;5082925;28;20194;-81
2022/05/22 11:47:57;;;;;;;3.45;1.38;;;;;28.10;101412.00;;;;5081149;28;20221;-84
2022/05/22 11:50:33;;;;;;;3.95;1.50;;;;;28.20;101419.00;;;;5086497;28;20190;-81
2022/05/22 11:53:16;;;;;;;3.05;1.92;;;;;28.20;101410.00;;;;5077972;28;20213;-80
2022/05/22 11:56:00;;;;;;;3.05;1.60;;;;;28.20;101417.00;;;;5087162;28;20229;-79
2022/05/22 11:58:34;;;;;;;2.05;1.40;;;;;28.20;101411.00;;;;5072595;28;20225;-81
2022/05/22 12:01:11;;;;;;;2.90;1.70;;;;;28.30;101415.00;;;;5079838;28;20253;-80
2022/05/22 12:04:08;;;;;;;2.67;1.77;;;;;28.30;101411.00;;;;5081825;28;20221;-79
2022/05/22 12:06:45;;;;;;;2.20;1.92;;;;;28.40;101405.00;;;;5068677;28;20659;-80
2022/05/22 12:09:28;;;;;;;4.15;2.30;;;;;28.40;101407.00;;;;5093730;28;20671;-80
2022/05/22 12:12:04;;;;;;;4.07;2.08;;;;;28.50;101395.00;;;;5076461;28;20195;-80
2022/05/22 12:14:40;;;;;;;4.40;2.65;;;;;28.50;101397.00;;;;5076130;28;20197;-79
2022/05/22 12:17:13;;;;;;;3.92;2.10;;;;;28.50;101392.00;;;;5086524;28;20221;-80
2022/05/22 12:19:45;;;;;;;3.60;1.95;;;;;28.50;101397.00;;;;5078673;28;20222;-80
2022/05/22 12:23:07;;;;;;;2.88;2.08;;;;;28.40;101390.00;;;;5083862;28;20659;-80
2022/05/22 12:25:17;;;;;;;3.80;2.13;;;;;28.50;101385.00;;;;5088017;28;20206;-81
2022/05/22 12:27:45;;;;;;;4.03;2.28;;;;;28.60;101386.00;;;;5088716;28;20247;-80
2022/05/22 12:30:26;;;;;;;5.38;2.53;;;;;28.40;101387.00;;;;5088124;28;20210;-79
2022/05/22 12:32:58;;;;;;;3.80;2.78;;;;;28.50;101376.00;;;;5087949;28;20202;-79
2022/05/22 12:35:27;;;;;;;3.72;2.45;;;;;28.50;101369.00;;;;5088457;28;20226;-80
2022/05/22 12:37:57;;;;;;;3.95;2.90;;;;;28.50;101374.00;;;;5088609;28;20582;-79
2022/05/22 12:40:38;;;;;;;6.35;3.47;;;;;28.50;101377.00;;;;5086710;28;20230;-79
2022/05/22 12:43:09;;;;;;;3.10;2.45;;;;;28.50;101367.00;;;;5087202;28;20696;-79
2022/05/22 12:45:38;;;;;;;3.88;2.88;;;;;28.50;101359.00;;;;5088644;28;20212;-80